sensor_id;sensor_type;location;lat;lon;timestamp;pressure;altitude;pressure_sealevel;temperature;humidity
20860;BME280;10590;48.154;11.514;2023-07-13T00:03:16;95667.09;;;18.29;98.38
20860;BME280;10590;48.154;11.514;2023-07-13T00:08:40;95654.97;;;18.20;98.85
20860;BME280;10590;48.154;11.514;2023-07-13T00:14:02;95657.91;;;18.34;97.71
20860;BME280;10590;48.154;11.514;2023-07-13T00:19:24;95647.72;;;18.24;98.23
20860;BME280;10590;48.154;11.514;2023-07-13T00:24:47;95662.22;;;18.38;97.92
20860;BME280;10590;48.154;11.514;2023-07-13T00:30:10;95646.06;;;18.19;97.46
20860;BME280;10590;48.154;11.514;2023-07-13T00:35:34;95654.84;;;18.35;97.25
20860;BME280;10590;48.154;11.514;2023-07-13T00:40:58;95660.66;;;18.37;96.69
20860;BME280;10590;48.154;11.514;2023-07-13T00:46:28;95658.53;;;18.24;96.53
20860;BME280;10590;48.154;11.514;2023-07-13T00:51:55;95660.19;;;18.32;96.65
20860;BME280;10590;48.154;11.514;2023-07-13T00:57:20;95663.84;;;18.20;97.23
20860;BME280;10590;48.154;11.514;2023-07-13T01:02:45;95648.25;;;18.10;98.14
20860;BME280;10590;48.154;11.514;2023-07-13T01:08:07;95644.41;;;18.11;97.35
20860;BME280;10590;48.154;11.514;2023-07-13T01:13:32;95629.88;;;18.19;96.77
20860;BME280;10590;48.154;11.514;2023-07-13T01:18:56;95630.38;;;18.25;96.64
20860;BME280;10590;48.154;11.514;2023-07-13T01:24:21;95616.91;;;18.28;97.27
20860;BME280;10590;48.154;11.514;2023-07-13T01:29:44;95615.47;;;18.34;95.00
20860;BME280;10590;48.154;11.514;2023-07-13T01:35:08;95610.31;;;18.26;95.79
20860;BME280;10590;48.154;11.514;2023-07-13T01:40:31;95614.44;;;18.20;96.27
20860;BME280;10590;48.154;11.514;2023-07-13T01:45:53;95630.28;;;17.95;97.61
20860;BME280;10590;48.154;11.514;2023-07-13T01:51:15;95639.38;;;18.09;96.78
20860;BME280;10590;48.154;11.514;2023-07-13T01:56:39;95637.94;;;17.93;97.90
20860;BME280;10590;48.154;11.514;2023-07-13T02:02:02;95633.44;;;18.00;99.13
20860;BME280;10590;48.154;11.514;2023-07-13T02:07:24;95635.09;;;18.08;98.05
20860;BME280;10590;48.154;11.514;2023-07-13T02:12:48;95630.03;;;18.03;98.44
20860;BME280;10590;48.154;11.514;2023-07-13T02:18:10;95638.47;;;18.02;97.41
20860;BME280;10590;48.154;11.514;2023-07-13T02:23:33;95645.25;;;18.15;97.38
20860;BME280;10590;48.154;11.514;2023-07-13T02:28:57;95651.31;;;18.31;96.52
20860;BME280;10590;48.154;11.514;2023-07-13T02:34:19;95665.75;;;18.20;97.59
20860;BME280;10590;48.154;11.514;2023-07-13T02:39:41;95681.91;;;18.16;99.40
20860;BME280;10590;48.154;11.514;2023-07-13T02:45:06;95689.78;;;17.79;100.00
20860;BME280;10590;48.154;11.514;2023-07-13T02:50:28;95714.16;;;17.63;100.00
20860;BME280;10590;48.154;11.514;2023-07-13T02:55:50;95711.91;;;17.46;100.00
20860;BME280;10590;48.154;11.514;2023-07-13T03:01:15;95707.97;;;17.24;100.00
20860;BME280;10590;48.154;11.514;2023-07-13T03:06:39;95701.81;;;17.24;100.00
20860;BME280;10590;48.154;11.514;2023-07-13T03:12:02;95706.63;;;17.34;100.00
20860;BME280;10590;48.154;11.514;2023-07-13T03:17:25;95719.19;;;17.26;100.00
20860;BME280;10590;48.154;11.514;2023-07-13T03:22:47;95718.41;;;17.06;100.00
20860;BME280;10590;48.154;11.514;2023-07-13T03:28:12;95714.94;;;17.06;100.00
20860;BME280;10590;48.154;11.514;2023-07-13T03:33:36;95710.19;;;17.18;99.36
20860;BME280;10590;48.154;11.514;2023-07-13T03:38:59;95721.47;;;17.05;100.00
20860;BME280;10590;48.154;11.514;2023-07-13T03:44:21;95730.34;;;17.05;100.00
20860;BME280;10590;48.154;11.514;2023-07-13T03:49:44;95721.88;;;17.07;99.90
20860;BME280;10590;48.154;11.514;2023-07-13T03:55:08;95718.69;;;17.20;99.36
20860;BME280;10590;48.154;11.514;2023-07-13T04:00:30;95727.06;;;16.96;98.02
20860;BME280;10590;48.154;11.514;2023-07-13T04:05:54;95729.44;;;16.82;98.63
20860;BME280;10590;48.154;11.514;2023-07-13T04:11:20;95739.66;;;16.73;99.40
20860;BME280;10590;48.154;11.514;2023-07-13T04:16:42;95742.94;;;16.82;99.52
20860;BME280;10590;48.154;11.514;2023-07-13T04:22:06;95745.63;;;16.82;99.30
20860;BME280;10590;48.154;11.514;2023-07-13T04:27:28;95742.22;;;16.85;99.51
20860;BME280;10590;48.154;11.514;2023-07-13T04:32:51;95750.47;;;16.92;99.25
20860;BME280;10590;48.154;11.514;2023-07-13T04:38:15;95744.00;;;16.97;98.23
20860;BME280;10590;48.154;11.514;2023-07-13T04:43:37;95757.22;;;17.02;98.29
20860;BME280;10590;48.154;11.514;2023-07-13T04:48:59;95768.94;;;17.09;98.17
20860;BME280;10590;48.154;11.514;2023-07-13T04:54:22;95775.09;;;17.10;98.32
20860;BME280;10590;48.154;11.514;2023-07-13T04:59:45;95771.06;;;17.19;97.75
20860;BME280;10590;48.154;11.514;2023-07-13T05:05:07;95776.25;;;17.09;98.34
20860;BME280;10590;48.154;11.514;2023-07-13T05:10:30;95785.13;;;17.09;98.42
20860;BME280;10590;48.154;11.514;2023-07-13T05:15:57;95788.09;;;17.04;98.82
20860;BME280;10590;48.154;11.514;2023-07-13T05:21:19;95781.13;;;17.03;97.36
20860;BME280;10590;48.154;11.514;2023-07-13T05:26:43;95776.31;;;17.12;97.15
20860;BME280;10590;48.154;11.514;2023-07-13T05:32:06;95783.97;;;17.10;96.91
20860;BME280;10590;48.154;11.514;2023-07-13T05:37:29;95788.31;;;17.15;97.32
20860;BME280;10590;48.154;11.514;2023-07-13T05:42:52;95791.16;;;17.22;98.08
20860;BME280;10590;48.154;11.514;2023-07-13T05:48:14;95797.94;;;17.51;95.44
20860;BME280;10590;48.154;11.514;2023-07-13T05:53:37;95789.13;;;17.93;93.53
20860;BME280;10590;48.154;11.514;2023-07-13T05:59:00;95801.03;;;18.11;93.57
20860;BME280;10590;48.154;11.514;2023-07-13T06:04:24;95797.50;;;18.07;92.44
20860;BME280;10590;48.154;11.514;2023-07-13T06:09:46;95796.88;;;17.94;92.88
20860;BME280;10590;48.154;11.514;2023-07-13T06:15:09;95811.28;;;18.21;92.78
20860;BME280;10590;48.154;11.514;2023-07-13T06:20:33;95824.22;;;19.03;89.61
20860;BME280;10590;48.154;11.514;2023-07-13T06:25:57;95811.84;;;19.02;89.09
20860;BME280;10590;48.154;11.514;2023-07-13T06:31:20;95806.66;;;19.17;86.66
20860;BME280;10590;48.154;11.514;2023-07-13T06:36:42;95831.91;;;19.01;84.73
20860;BME280;10590;48.154;11.514;2023-07-13T06:42:05;95846.88;;;18.69;87.13
20860;BME280;10590;48.154;11.514;2023-07-13T06:47:28;95850.38;;;18.50;86.08
20860;BME280;10590;48.154;11.514;2023-07-13T06:52:50;95848.78;;;18.68;86.47
20860;BME280;10590;48.154;11.514;2023-07-13T06:58:15;95855.34;;;18.67;83.09
20860;BME280;10590;48.154;11.514;2023-07-13T07:03:38;95857.19;;;18.86;84.03
20860;BME280;10590;48.154;11.514;2023-07-13T07:09:00;95853.69;;;18.86;83.91
20860;BME280;10590;48.154;11.514;2023-07-13T07:14:22;95872.19;;;18.38;83.60
20860;BME280;10590;48.154;11.514;2023-07-13T07:19:46;95856.56;;;18.51;83.13
20860;BME280;10590;48.154;11.514;2023-07-13T07:25:07;95853.75;;;18.89;80.66
20860;BME280;10590;48.154;11.514;2023-07-13T07:30:29;95861.16;;;18.92;79.74
20860;BME280;10590;48.154;11.514;2023-07-13T07:35:53;95867.50;;;19.03;80.44
20860;BME280;10590;48.154;11.514;2023-07-13T07:41:15;95877.66;;;19.10;81.67
20860;BME280;10590;48.154;11.514;2023-07-13T07:46:37;95889.88;;;18.77;79.84
20860;BME280;10590;48.154;11.514;2023-07-13T07:52:00;95907.59;;;18.75;80.08
20860;BME280;10590;48.154;11.514;2023-07-13T07:57:22;95903.25;;;18.09;80.83
20860;BME280;10590;48.154;11.514;2023-07-13T08:02:45;95910.69;;;18.15;79.41
20860;BME280;10590;48.154;11.514;2023-07-13T08:08:09;95909.81;;;18.27;80.80
20860;BME280;10590;48.154;11.514;2023-07-13T08:13:30;95925.19;;;18.46;79.37
20860;BME280;10590;48.154;11.514;2023-07-13T08:18:52;95919.59;;;18.35;80.58
20860;BME280;10590;48.154;11.514;2023-07-13T08:24:16;95921.72;;;17.88;77.29
20860;BME280;10590;48.154;11.514;2023-07-13T08:29:39;95929.53;;;17.93;79.09
20860;BME280;10590;48.154;11.514;2023-07-13T08:35:01;95936.50;;;18.13;76.96
20860;BME280;10590;48.154;11.514;2023-07-13T08:40:25;95945.31;;;18.49;74.08
20860;BME280;10590;48.154;11.514;2023-07-13T08:45:52;95937.09;;;19.06;66.96
20860;BME280;10590;48.154;11.514;2023-07-13T08:51:27;95935.47;;;19.25;64.86
20860;BME280;10590;48.154;11.514;2023-07-13T08:56:56;95948.13;;;19.17;67.96
20860;BME280;10590;48.154;11.514;2023-07-13T09:02:26;95941.66;;;18.80;67.12
20860;BME280;10590;48.154;11.514;2023-07-13T09:08:12;95955.00;;;18.69;64.82
20860;BME280;10590;48.154;11.514;2023-07-13T09:13:49;95948.00;;;19.10;67.25
20860;BME280;10590;48.154;11.514;2023-07-13T09:19:19;95951.53;;;19.37;62.92
20860;BME280;10590;48.154;11.514;2023-07-13T09:24:52;95941.31;;;19.27;61.14
20860;BME280;10590;48.154;11.514;2023-07-13T09:30:26;95940.81;;;19.44;59.76
20860;BME280;10590;48.154;11.514;2023-07-13T09:35:49;95953.81;;;19.35;62.13
20860;BME280;10590;48.154;11.514;2023-07-13T09:41:19;95952.03;;;19.46;63.04
20860;BME280;10590;48.154;11.514;2023-07-13T09:46:47;95948.97;;;20.30;58.99
20860;BME280;10590;48.154;11.514;2023-07-13T09:52:15;95942.34;;;21.39;53.47
20860;BME280;10590;48.154;11.514;2023-07-13T09:57:46;95954.59;;;22.43;50.76
20860;BME280;10590;48.154;11.514;2023-07-13T10:03:19;95945.59;;;22.24;52.63
20860;BME280;10590;48.154;11.514;2023-07-13T10:08:44;95950.56;;;21.06;52.32
20860;BME280;10590;48.154;11.514;2023-07-13T10:14:12;95947.44;;;21.04;53.12
20860;BME280;10590;48.154;11.514;2023-07-13T10:19:37;95962.28;;;22.27;50.47
20860;BME280;10590;48.154;11.514;2023-07-13T10:24:59;95959.94;;;22.18;53.58
20860;BME280;10590;48.154;11.514;2023-07-13T10:30:24;95962.31;;;22.30;48.83
20860;BME280;10590;48.154;11.514;2023-07-13T10:35:52;95946.94;;;25.03;44.79
20860;BME280;10590;48.154;11.514;2023-07-13T10:41:19;95953.22;;;22.99;48.77
20860;BME280;10590;48.154;11.514;2023-07-13T10:46:43;95954.72;;;22.78;49.04
20860;BME280;10590;48.154;11.514;2023-07-13T10:52:41;95960.06;;;22.53;49.50
20860;BME280;10590;48.154;11.514;2023-07-13T10:58:12;95959.38;;;22.71;48.40
20860;BME280;10590;48.154;11.514;2023-07-13T11:03:37;95968.69;;;22.73;50.41
20860;BME280;10590;48.154;11.514;2023-07-13T11:09:25;95968.00;;;23.12;47.45
20860;BME280;10590;48.154;11.514;2023-07-13T11:15:06;95974.69;;;23.68;44.25
20860;BME280;10590;48.154;11.514;2023-07-13T11:20:34;95968.03;;;23.33;43.27
20860;BME280;10590;48.154;11.514;2023-07-13T11:25:58;95970.78;;;23.62;41.46
20860;BME280;10590;48.154;11.514;2023-07-13T11:31:21;95960.91;;;25.64;39.81
20860;BME280;10590;48.154;11.514;2023-07-13T11:36:44;95942.38;;;26.84;37.35
20860;BME280;10590;48.154;11.514;2023-07-13T11:42:12;95939.97;;;27.90;35.16
20860;BME280;10590;48.154;11.514;2023-07-13T11:47:40;95930.13;;;27.46;35.54
20860;BME280;10590;48.154;11.514;2023-07-13T11:53:02;95922.81;;;27.40;34.48
20860;BME280;10590;48.154;11.514;2023-07-13T11:58:26;95917.78;;;28.64;32.98
20860;BME280;10590;48.154;11.514;2023-07-13T12:03:50;95915.66;;;27.92;34.14
20860;BME280;10590;48.154;11.514;2023-07-13T12:09:14;95919.56;;;25.10;40.76
20860;BME280;10590;48.154;11.514;2023-07-13T12:14:38;95919.75;;;25.40;40.19
20860;BME280;10590;48.154;11.514;2023-07-13T12:20:10;95914.88;;;24.48;42.22
20860;BME280;10590;48.154;11.514;2023-07-13T12:25:36;95910.25;;;25.04;39.36
20860;BME280;10590;48.154;11.514;2023-07-13T12:31:00;95909.41;;;26.64;36.90
20860;BME280;10590;48.154;11.514;2023-07-13T12:36:22;95902.03;;;25.56;37.89
20860;BME280;10590;48.154;11.514;2023-07-13T12:41:45;95908.91;;;23.59;45.04
20860;BME280;10590;48.154;11.514;2023-07-13T12:47:13;95902.72;;;26.39;38.40
20860;BME280;10590;48.154;11.514;2023-07-13T12:52:36;95895.34;;;26.32;36.09
20860;BME280;10590;48.154;11.514;2023-07-13T12:57:59;95887.44;;;25.28;38.98
20860;BME280;10590;48.154;11.514;2023-07-13T13:03:26;95879.81;;;25.91;38.24
20860;BME280;10590;48.154;11.514;2023-07-13T13:08:53;95874.25;;;27.40;35.94
20860;BME280;10590;48.154;11.514;2023-07-13T13:14:15;95880.78;;;25.74;37.78
20860;BME280;10590;48.154;11.514;2023-07-13T13:19:39;95875.09;;;27.14;34.12
20860;BME280;10590;48.154;11.514;2023-07-13T13:25:02;95866.50;;;26.58;34.21
20860;BME280;10590;48.154;11.514;2023-07-13T13:30:23;95882.03;;;25.66;37.43
20860;BME280;10590;48.154;11.514;2023-07-13T13:35:47;95876.66;;;25.11;39.24
20860;BME280;10590;48.154;11.514;2023-07-13T13:41:10;95878.34;;;24.17;41.83
20860;BME280;10590;48.154;11.514;2023-07-13T13:46:33;95893.34;;;23.24;42.05
20860;BME280;10590;48.154;11.514;2023-07-13T13:51:57;95885.13;;;23.73;40.95
20860;BME280;10590;48.154;11.514;2023-07-13T13:57:19;95885.13;;;23.77;39.91
20860;BME280;10590;48.154;11.514;2023-07-13T14:02:44;95887.41;;;23.89;40.30
20860;BME280;10590;48.154;11.514;2023-07-13T14:08:12;95888.25;;;24.66;39.88
20860;BME280;10590;48.154;11.514;2023-07-13T14:13:37;95880.56;;;27.37;36.23
20860;BME280;10590;48.154;11.514;2023-07-13T14:19:00;95887.28;;;24.25;39.08
20860;BME280;10590;48.154;11.514;2023-07-13T14:24:24;95885.91;;;25.68;38.88
20860;BME280;10590;48.154;11.514;2023-07-13T14:29:46;95868.22;;;27.49;35.31
20860;BME280;10590;48.154;11.514;2023-07-13T14:35:10;95880.31;;;27.28;34.83
20860;BME280;10590;48.154;11.514;2023-07-13T14:40:34;95889.44;;;26.67;35.84
20860;BME280;10590;48.154;11.514;2023-07-13T14:45:56;95881.47;;;26.50;36.35
20860;BME280;10590;48.154;11.514;2023-07-13T14:51:18;95879.06;;;27.33;35.13
20860;BME280;10590;48.154;11.514;2023-07-13T14:56:42;95887.97;;;26.59;36.17
20860;BME280;10590;48.154;11.514;2023-07-13T15:02:14;95877.91;;;26.80;36.25
20860;BME280;10590;48.154;11.514;2023-07-13T15:07:36;95866.81;;;26.90;36.63
20860;BME280;10590;48.154;11.514;2023-07-13T15:13:00;95870.28;;;26.94;36.18
20860;BME280;10590;48.154;11.514;2023-07-13T15:18:25;95877.63;;;26.13;36.90
20860;BME280;10590;48.154;11.514;2023-07-13T15:23:48;95867.38;;;26.51;35.73
20860;BME280;10590;48.154;11.514;2023-07-13T15:29:11;95865.06;;;26.50;35.83
20860;BME280;10590;48.154;11.514;2023-07-13T15:34:36;95860.28;;;26.81;35.06
20860;BME280;10590;48.154;11.514;2023-07-13T15:39:58;95860.81;;;26.45;35.91
20860;BME280;10590;48.154;11.514;2023-07-13T15:45:24;95860.72;;;25.02;38.79
20860;BME280;10590;48.154;11.514;2023-07-13T15:50:47;95862.91;;;26.00;37.01
20860;BME280;10590;48.154;11.514;2023-07-13T15:56:17;95857.25;;;26.18;35.97
20860;BME280;10590;48.154;11.514;2023-07-13T16:01:43;95869.22;;;24.59;41.34
20860;BME280;10590;48.154;11.514;2023-07-13T16:07:09;95865.09;;;24.19;43.28
20860;BME280;10590;48.154;11.514;2023-07-13T16:12:31;95858.31;;;23.61;42.62
20860;BME280;10590;48.154;11.514;2023-07-13T16:17:58;95863.00;;;23.14;43.32
20860;BME280;10590;48.154;11.514;2023-07-13T16:23:36;95876.22;;;23.27;40.29
20860;BME280;10590;48.154;11.514;2023-07-13T16:28:58;95865.69;;;23.64;41.02
20860;BME280;10590;48.154;11.514;2023-07-13T16:34:23;95869.38;;;24.20;40.58
20860;BME280;10590;48.154;11.514;2023-07-13T16:39:49;95870.75;;;23.66;42.30
20860;BME280;10590;48.154;11.514;2023-07-13T16:45:13;95875.44;;;23.47;42.77
20860;BME280;10590;48.154;11.514;2023-07-13T16:50:38;95884.78;;;23.25;40.42
20860;BME280;10590;48.154;11.514;2023-07-13T16:56:01;95878.97;;;23.05;40.80
20860;BME280;10590;48.154;11.514;2023-07-13T17:01:24;95872.31;;;23.31;40.58
20860;BME280;10590;48.154;11.514;2023-07-13T17:06:49;95873.13;;;23.14;43.19
20860;BME280;10590;48.154;11.514;2023-07-13T17:12:12;95869.22;;;23.11;42.36
20860;BME280;10590;48.154;11.514;2023-07-13T17:17:37;95880.13;;;23.22;42.22
20860;BME280;10590;48.154;11.514;2023-07-13T17:23:05;95888.28;;;22.97;43.00
20860;BME280;10590;48.154;11.514;2023-07-13T17:28:31;95881.28;;;22.93;43.05
20860;BME280;10590;48.154;11.514;2023-07-13T17:33:53;95877.00;;;22.92;44.28
20860;BME280;10590;48.154;11.514;2023-07-13T17:39:19;95883.19;;;22.74;45.11
20860;BME280;10590;48.154;11.514;2023-07-13T17:44:43;95887.06;;;22.66;43.78
20860;BME280;10590;48.154;11.514;2023-07-13T17:50:11;95884.78;;;22.82;45.13
20860;BME280;10590;48.154;11.514;2023-07-13T17:55:35;95892.84;;;22.54;44.90
20860;BME280;10590;48.154;11.514;2023-07-13T18:00:59;95883.47;;;22.34;45.23
20860;BME280;10590;48.154;11.514;2023-07-13T18:06:25;95889.72;;;22.41;44.41
20860;BME280;10590;48.154;11.514;2023-07-13T18:11:52;95895.00;;;22.02;47.22
20860;BME280;10590;48.154;11.514;2023-07-13T18:17:21;95910.47;;;21.91;47.26
20860;BME280;10590;48.154;11.514;2023-07-13T18:22:46;95909.28;;;21.85;47.78
20860;BME280;10590;48.154;11.514;2023-07-13T18:28:09;95911.97;;;21.78;48.74
20860;BME280;10590;48.154;11.514;2023-07-13T18:33:34;95910.03;;;21.82;48.04
20860;BME280;10590;48.154;11.514;2023-07-13T18:38:57;95904.44;;;21.57;47.91
20860;BME280;10590;48.154;11.514;2023-07-13T18:44:20;95914.91;;;21.58;48.93
20860;BME280;10590;48.154;11.514;2023-07-13T18:49:42;95915.13;;;21.32;50.18
20860;BME280;10590;48.154;11.514;2023-07-13T18:55:12;95923.69;;;21.34;49.67
20860;BME280;10590;48.154;11.514;2023-07-13T19:00:38;95919.91;;;21.49;49.32
20860;BME280;10590;48.154;11.514;2023-07-13T19:06:01;95922.25;;;21.51;48.61
20860;BME280;10590;48.154;11.514;2023-07-13T19:11:24;95920.28;;;21.48;49.78
20860;BME280;10590;48.154;11.514;2023-07-13T19:16:48;95924.53;;;21.45;49.97
20860;BME280;10590;48.154;11.514;2023-07-13T19:22:12;95919.84;;;21.42;49.75
20860;BME280;10590;48.154;11.514;2023-07-13T19:27:35;95928.16;;;21.16;50.26
20860;BME280;10590;48.154;11.514;2023-07-13T19:32:59;95941.56;;;20.94;51.66
20860;BME280;10590;48.154;11.514;2023-07-13T19:38:24;95954.28;;;20.87;52.16
20860;BME280;10590;48.154;11.514;2023-07-13T19:43:48;95962.44;;;20.90;52.75
20860;BME280;10590;48.154;11.514;2023-07-13T19:49:14;95966.66;;;20.84;53.45
20860;BME280;10590;48.154;11.514;2023-07-13T19:54:38;95978.59;;;20.46;54.66
20860;BME280;10590;48.154;11.514;2023-07-13T20:00:09;95991.47;;;20.53;54.94
20860;BME280;10590;48.154;11.514;2023-07-13T20:05:37;95990.72;;;20.56;56.30
20860;BME280;10590;48.154;11.514;2023-07-13T20:10:59;95993.19;;;20.38;56.75
20860;BME280;10590;48.154;11.514;2023-07-13T20:16:21;95996.34;;;20.40;58.21
20860;BME280;10590;48.154;11.514;2023-07-13T20:21:44;95993.81;;;20.24;59.35
20860;BME280;10590;48.154;11.514;2023-07-13T20:27:07;96004.22;;;20.22;60.42
20860;BME280;10590;48.154;11.514;2023-07-13T20:32:29;96007.34;;;19.94;62.77
20860;BME280;10590;48.154;11.514;2023-07-13T20:37:54;96014.97;;;19.89;63.39
20860;BME280;10590;48.154;11.514;2023-07-13T20:43:16;96015.50;;;19.71;64.58
20860;BME280;10590;48.154;11.514;2023-07-13T20:48:40;96025.97;;;19.73;65.04
20860;BME280;10590;48.154;11.514;2023-07-13T20:54:13;96022.72;;;19.41;66.64
20860;BME280;10590;48.154;11.514;2023-07-13T20:59:35;96024.50;;;19.53;66.30
20860;BME280;10590;48.154;11.514;2023-07-13T21:05:00;96036.09;;;19.53;67.30
20860;BME280;10590;48.154;11.514;2023-07-13T21:10:32;96031.47;;;19.54;66.73
20860;BME280;10590;48.154;11.514;2023-07-13T21:15:54;96042.19;;;19.50;67.40
20860;BME280;10590;48.154;11.514;2023-07-13T21:21:18;96041.84;;;19.29;68.13
20860;BME280;10590;48.154;11.514;2023-07-13T21:26:42;96040.53;;;19.42;66.84
20860;BME280;10590;48.154;11.514;2023-07-13T21:32:12;96034.31;;;19.41;67.04
20860;BME280;10590;48.154;11.514;2023-07-13T21:37:35;96027.06;;;19.23;67.51
20860;BME280;10590;48.154;11.514;2023-07-13T21:43:02;96044.06;;;19.23;67.36
20860;BME280;10590;48.154;11.514;2023-07-13T21:48:26;96035.25;;;19.07;67.61
20860;BME280;10590;48.154;11.514;2023-07-13T21:53:49;96040.19;;;19.01;67.87
20860;BME280;10590;48.154;11.514;2023-07-13T21:59:23;96052.56;;;19.02;68.26
20860;BME280;10590;48.154;11.514;2023-07-13T22:04:45;96050.69;;;19.06;68.06
20860;BME280;10590;48.154;11.514;2023-07-13T22:10:13;96053.69;;;19.01;68.06
20860;BME280;10590;48.154;11.514;2023-07-13T22:15:39;96040.28;;;18.86;67.62
20860;BME280;10590;48.154;11.514;2023-07-13T22:21:03;96045.88;;;18.96;67.52
20860;BME280;10590;48.154;11.514;2023-07-13T22:26:31;96048.88;;;18.91;66.59
20860;BME280;10590;48.154;11.514;2023-07-13T22:31:55;96038.84;;;18.92;67.10
20860;BME280;10590;48.154;11.514;2023-07-13T22:37:17;96034.81;;;18.82;67.30
20860;BME280;10590;48.154;11.514;2023-07-13T22:42:39;96036.81;;;18.66;66.55
20860;BME280;10590;48.154;11.514;2023-07-13T22:48:03;96033.09;;;18.55;67.50
20860;BME280;10590;48.154;11.514;2023-07-13T22:53:31;96028.88;;;18.57;66.97
20860;BME280;10590;48.154;11.514;2023-07-13T22:58:56;96036.63;;;18.39;67.42
20860;BME280;10590;48.154;11.514;2023-07-13T23:04:23;96026.34;;;18.10;69.15
20860;BME280;10590;48.154;11.514;2023-07-13T23:09:45;96036.78;;;18.27;67.78
20860;BME280;10590;48.154;11.514;2023-07-13T23:15:10;96040.13;;;18.05;68.92
20860;BME280;10590;48.154;11.514;2023-07-13T23:20:38;96036.00;;;18.11;68.75
20860;BME280;10590;48.154;11.514;2023-07-13T23:26:00;96037.53;;;17.93;69.44
20860;BME280;10590;48.154;11.514;2023-07-13T23:31:32;96044.50;;;17.94;70.65
20860;BME280;10590;48.154;11.514;2023-07-13T23:36:56;96056.00;;;17.59;71.85
20860;BME280;10590;48.154;11.514;2023-07-13T23:42:18;96026.25;;;17.56;71.39
20860;BME280;10590;48.154;11.514;2023-07-13T23:47:45;96038.78;;;17.79;71.31
20860;BME280;10590;48.154;11.514;2023-07-13T23:53:10;96034.16;;;17.80;72.13
20860;BME280;10590;48.154;11.514;2023-07-13T23:58:33;96040.06;;;17.86;72.90
